Time;durP1;ratioP1;P1;durP2;ratioP2;P2;SDS_P1;SDS_P2;PMS_P1;PMS_P2;Temp;Humidity;BMP_temperature;BMP_pressure;BME280_temperature;BME280_humidity;BME280_pressure;Samples;Min_cycle;Max_cycle;Signal;HPM_P1;HPM_P2
2023/02/07 00:01:20;;;;;;;4.40;3.15;;;;;;;0.73;100.00;102066.88;7394201;19;20014;-95
2023/02/07 00:03:47;;;;;;;7.13;3.10;;;;;;;0.62;100.00;102052.91;7396523;19;20054;-94
2023/02/07 00:06:16;;;;;;;2.20;2.00;;;;;;;0.22;100.00;102055.00;7397418;19;20017;-94
2023/02/07 00:08:43;;;;;;;5.55;2.13;;;;;;;0.16;100.00;102052.88;7396388;19;20014;-94
2023/02/07 00:11:15;;;;;;;7.38;3.97;;;;;;;-0.02;100.00;102049.66;7399909;19;20035;-94
2023/02/07 00:13:45;;;;;;;3.60;2.97;;;;;;;-0.13;100.00;102048.59;7395281;19;20011;-93
2023/02/07 00:16:12;;;;;;;2.55;2.17;;;;;;;-0.10;100.00;102045.94;7396453;19;20011;-93
2023/02/07 00:18:39;;;;;;;5.15;3.40;;;;;;;-0.10;100.00;102040.47;7390587;19;20042;-93
2023/02/07 00:21:08;;;;;;;2.90;2.70;;;;;;;11.04;100.00;102018.13;7393572;19;20537;-94
2023/02/07 00:23:35;;;;;;;10.73;4.20;;;;;;;7.43;82.72;102034.28;7390732;19;20021;-93
2023/02/07 00:26:03;;;;;;;11.13;4.60;;;;;;;8.90;61.22;102026.22;7395285;19;20027;-93
2023/02/07 00:28:30;;;;;;;4.00;2.85;;;;;;;2.12;100.00;102044.78;7396731;19;20011;-93
2023/02/07 00:31:03;;;;;;;2.05;1.60;;;;;;;0.86;100.00;102035.47;7399515;19;20015;-93
2023/02/07 00:33:30;;;;;;;3.92;2.97;;;;;;;5.07;100.00;102027.56;7396844;19;20048;-93
2023/02/07 00:35:58;;;;;;;4.20;3.40;;;;;;;17.69;50.96;102004.38;7395089;19;20338;-93
2023/02/07 00:38:24;;;;;;;1.88;1.75;;;;;;;14.32;55.96;102022.72;7393242;19;20007;-94
2023/02/07 00:40:50;;;;;;;14.70;3.40;;;;;;;19.35;42.25;102008.22;7398165;19;20019;-95
2023/02/07 00:43:16;;;;;;;5.63;3.10;;;;;;;20.32;38.57;102013.78;7398058;19;20793;-94
2023/02/07 00:45:42;;;;;;;5.85;3.80;;;;;;;20.57;37.21;102013.16;7400118;19;20025;-94
2023/02/07 00:48:09;;;;;;;8.05;5.57;;;;;;;20.38;36.81;102011.81;7394832;19;20015;-93
2023/02/07 00:50:35;;;;;;;2.53;2.28;;;;;;;20.69;36.59;102017.69;7404439;19;20010;-93
2023/02/07 00:53:01;;;;;;;7.80;3.08;;;;;;;20.83;35.75;102016.84;7402928;19;20030;-92
2023/02/07 00:55:27;;;;;;;5.20;2.80;;;;;;;4.58;67.47;102052.81;7402541;19;20022;-93
2023/02/07 00:57:53;;;;;;;5.22;2.95;;;;;;;-0.43;100.00;102067.28;7400260;19;20029;-93
2023/02/07 01:00:19;;;;;;;24.10;5.55;;;;;;;-1.02;100.00;102063.53;7405744;19;20043;-92
2023/02/07 01:02:46;;;;;;;9.30;4.53;;;;;;;-1.01;100.00;102074.13;7401181;19;20102;-93
2023/02/07 01:05:12;;;;;;;20.92;4.22;;;;;;;-2.67;100.00;102072.22;7402680;19;20015;-93
2023/02/07 01:07:38;;;;;;;6.03;3.22;;;;;;;-3.08;100.00;102064.81;7399601;19;20104;-93
2023/02/07 01:10:06;;;;;;;16.25;3.65;;;;;;;-3.30;100.00;102059.63;7402976;19;20493;-93
2023/02/07 01:12:32;;;;;;;21.25;4.75;;;;;;;15.87;57.68;102008.06;7399897;19;20010;-83
2023/02/07 01:14:58;;;;;;;5.57;3.42;;;;;;;18.34;43.99;102014.19;7401517;19;20022;-92
2023/02/07 01:17:24;;;;;;;8.40;4.18;;;;;;;18.57;42.23;102022.72;7400583;19;20019;-90
2023/02/07 01:19:58;;;;;;;4.25;3.53;;;;;;;19.88;39.24;102021.53;7403919;19;20002;-93
2023/02/07 01:22:25;;;;;;;12.93;2.38;;;;;;;20.55;36.95;102018.53;7400148;19;20011;-92
2023/02/07 01:24:53;;;;;;;9.05;3.88;;;;;;;20.72;35.79;102028.03;7402393;19;20836;-92
2023/02/07 01:27:21;;;;;;;3.30;2.95;;;;;;;21.19;35.16;102031.75;7400707;19;20014;-92
2023/02/07 01:29:47;;;;;;;3.88;3.00;;;;;;;21.46;34.14;102029.22;7404560;19;20022;-92
2023/02/07 01:38:33;;;;;;;0.85;0.85;;;;;;;21.74;32.60;102026.69;7395463;19;20335;-61
2023/02/07 01:40:59;;;;;;;4.22;2.58;;;;;;;21.63;32.81;102020.91;7402523;19;20010;-62
2023/02/07 01:43:25;;;;;;;11.18;2.63;;;;;;;22.14;31.86;102015.19;7395811;19;20014;-62
2023/02/07 01:45:51;;;;;;;3.00;1.75;;;;;;;12.67;38.76;102032.97;7392920;19;20740;-62
2023/02/07 01:48:28;;;;;;;1.52;1.52;;;;;;;3.52;81.22;102067.41;7392469;19;20014;-62
2023/02/07 01:50:59;;;;;;;4.13;1.88;;;;;;;2.14;100.00;102056.19;7397371;19;20018;-62
2023/02/07 01:53:28;;;;;;;3.72;2.72;;;;;;;1.64;100.00;102042.63;7394777;19;20031;-62
2023/02/07 01:55:57;;;;;;;6.05;2.80;;;;;;;1.00;100.00;102051.44;7394270;19;20449;-62
2023/02/07 01:58:24;;;;;;;10.65;3.03;;;;;;;0.23;100.00;102048.38;7394398;19;20356;-62
2023/02/07 02:00:51;;;;;;;8.57;2.47;;;;;;;1.92;100.00;102055.00;7395951;19;20077;-62
2023/02/07 02:03:18;;;;;;;8.20;3.03;;;;;;;4.79;100.00;102053.00;7398979;19;20014;-62
2023/02/07 02:05:44;;;;;;;1.50;1.42;;;;;;;0.93;100.00;102052.09;7394996;19;20010;-61
2023/02/07 02:08:11;;;;;;;13.88;2.08;;;;;;;0.03;100.00;102062.28;7392801;19;20018;-61
2023/02/07 02:10:58;;;;;;;1.85;1.85;;;;;;;-0.27;100.00;102065.41;7397934;19;20027;-62
2023/02/07 02:13:24;;;;;;;7.90;5.20;;;;;;;-0.41;100.00;102064.22;7394880;19;20018;-62
2023/02/07 02:16:07;;;;;;;4.88;1.85;;;;;;;-0.40;100.00;102052.91;7392620;19;20022;-62
2023/02/07 02:18:55;;;;;;;5.32;2.38;;;;;;;0.97;100.00;102052.97;7394439;19;20486;-62
2023/02/07 02:21:53;;;;;;;2.67;1.48;;;;;;;0.05;100.00;102051.78;7392006;19;20035;-62
2023/02/07 02:24:51;;;;;;;3.40;1.48;;;;;;;0.48;100.00;102038.84;7393012;19;20011;-63
2023/02/07 02:27:44;;;;;;;1.67;1.58;;;;;;;-0.20;100.00;102046.47;7392207;19;20031;-62
2023/02/07 02:30:18;;;;;;;9.05;1.75;;;;;;;-0.09;100.00;102049.47;7395505;19;20360;-62
2023/02/07 02:33:00;;;;;;;1.85;0.98;;;;;;;0.10;100.00;102035.09;7398124;19;20018;-62
2023/02/07 02:36:09;;;;;;;2.72;2.38;;;;;;;-0.08;100.00;102038.16;7393427;19;20091;-63
2023/02/07 02:38:51;;;;;;;18.48;2.88;;;;;;;-0.17;100.00;102042.19;7395970;19;20014;-63
2023/02/07 02:41:23;;;;;;;11.32;2.50;;;;;;;-0.28;100.00;102041.91;7395479;19;20430;-62
2023/02/07 02:43:57;;;;;;;12.13;2.85;;;;;;;-0.30;100.00;102043.38;7396960;19;20014;-62
2023/02/07 02:46:28;;;;;;;7.32;3.30;;;;;;;-0.13;100.00;102043.88;7394655;19;20339;-62
2023/02/07 02:48:57;;;;;;;2.65;1.83;;;;;;;-0.19;100.00;102048.03;7393768;19;20090;-62
2023/02/07 02:51:23;;;;;;;4.05;1.25;;;;;;;-0.02;100.00;102038.69;7399265;19;20021;-62
2023/02/07 02:53:54;;;;;;;3.28;2.40;;;;;;;-0.10;100.00;102036.91;7394144;19;20569;-62
2023/02/07 02:56:53;;;;;;;11.30;3.10;;;;;;;0.35;100.00;102044.75;7396675;19;20384;-61
2023/02/07 02:59:40;;;;;;;2.95;1.63;;;;;;;0.28;100.00;102041.84;7395369;19;20018;-62
2023/02/07 03:02:40;;;;;;;1.05;1.05;;;;;;;0.29;100.00;102027.78;7389603;19;20015;-62
2023/02/07 03:05:21;;;;;;;0.77;0.77;;;;;;;0.03;100.00;102024.75;7391083;19;20011;-62
2023/02/07 03:08:11;;;;;;;8.10;3.40;;;;;;;0.19;100.00;102027.53;7389930;19;20014;-62
2023/02/07 03:10:56;;;;;;;3.83;2.20;;;;;;;0.20;100.00;102029.09;7391034;19;20092;-62
2023/02/07 03:13:27;;;;;;;1.88;1.60;;;;;;;-0.18;100.00;102029.66;7389735;19;20006;-62
2023/02/07 03:16:12;;;;;;;3.45;1.80;;;;;;;-0.09;100.00;102011.91;7390706;19;20034;-62
2023/02/07 03:19:13;;;;;;;4.75;2.72;;;;;;;-0.34;100.00;102015.94;7391417;19;20035;-62
2023/02/07 03:21:45;;;;;;;3.13;1.73;;;;;;;-0.53;100.00;102015.78;7392155;19;20066;-62
2023/02/07 03:24:16;;;;;;;2.72;2.55;;;;;;;-0.31;100.00;102017.19;7392525;19;20731;-62
2023/02/07 03:26:45;;;;;;;8.45;1.98;;;;;;;-0.21;100.00;102014.72;7391396;19;20013;-62
2023/02/07 03:29:14;;;;;;;0.93;0.85;;;;;;;-0.28;100.00;102003.59;7390221;19;20015;-62
2023/02/07 03:31:44;;;;;;;5.55;2.55;;;;;;;-0.57;100.00;102009.41;7394296;19;20434;-62
2023/02/07 03:34:15;;;;;;;2.58;2.20;;;;;;;-0.67;100.00;102007.16;7391905;19;20015;-62
2023/02/07 03:36:52;;;;;;;;;;;;;;;-0.73;100.00;101997.59;7392977;19;20018;-62
2023/02/07 03:39:19;;;;;;;1.58;1.48;;;;;;;-0.45;100.00;101998.41;7392641;19;19948;-62
2023/02/07 03:41:54;;;;;;;1.85;1.35;;;;;;;-0.31;100.00;102003.50;7389661;19;20041;-62
2023/02/07 03:44:24;;;;;;;2.22;1.98;;;;;;;0.50;100.00;102011.06;7390447;19;20021;-62
2023/02/07 03:46:51;;;;;;;6.03;2.15;;;;;;;1.22;100.00;101999.44;7391304;19;20009;-62
2023/02/07 03:49:17;;;;;;;2.45;2.33;;;;;;;-0.06;100.00;101983.84;7390484;19;20088;-62
2023/02/07 03:51:43;;;;;;;4.15;1.98;;;;;;;-0.32;100.00;101980.78;7388889;19;20017;-62
2023/02/07 03:54:10;;;;;;;1.98;1.88;;;;;;;-0.54;100.00;101986.81;7394557;19;20038;-62
2023/02/07 03:56:37;;;;;;;3.10;1.55;;;;;;;-0.51;100.00;101994.34;7390669;19;20122;-62
2023/02/07 03:59:03;;;;;;;4.28;2.20;;;;;;;-0.46;100.00;101998.78;7391672;19;20061;-62
2023/02/07 04:01:29;;;;;;;2.50;1.45;;;;;;;-0.48;100.00;101992.84;7390933;19;20010;-62
2023/02/07 04:03:55;;;;;;;2.58;2.47;;;;;;;-0.53;100.00;101988.41;7389438;19;20018;-62
2023/02/07 04:06:22;;;;;;;4.22;3.45;;;;;;;-0.57;100.00;101993.00;7390879;19;20015;-62
2023/02/07 04:08:48;;;;;;;3.80;1.92;;;;;;;-0.61;100.00;102005.78;7388541;19;20025;-62
2023/02/07 04:11:14;;;;;;;7.60;2.63;;;;;;;-0.78;100.00;102000.59;7390825;19;20011;-62
2023/02/07 04:13:41;;;;;;;1.30;1.30;;;;;;;-0.83;100.00;102000.84;7390668;19;20634;-62
2023/02/07 04:16:07;;;;;;;2.33;2.05;;;;;;;-1.14;100.00;101992.47;7393269;19;20066;-62
2023/02/07 04:18:33;;;;;;;7.97;2.42;;;;;;;-1.06;100.00;101999.75;7393654;19;20014;-62
2023/02/07 04:21:05;;;;;;;19.02;5.13;;;;;;;-0.89;100.00;102004.97;7392702;19;20015;-62
2023/02/07 04:23:32;;;;;;;5.10;2.22;;;;;;;-0.60;100.00;101990.94;7387561;19;20082;-62
2023/02/07 04:25:58;;;;;;;3.63;2.05;;;;;;;-0.51;100.00;101994.34;7388390;19;20010;-62
2023/02/07 04:28:27;;;;;;;5.40;2.55;;;;;;;-0.49;100.00;101997.53;7390420;19;20018;-62
2023/02/07 04:30:53;;;;;;;2.35;2.15;;;;;;;-0.49;100.00;102002.19;7392791;19;20019;-62
2023/02/07 04:33:20;;;;;;;3.60;2.15;;;;;;;-0.39;100.00;102007.19;7390587;19;20034;-62
2023/02/07 04:35:53;;;;;;;1.48;1.20;;;;;;;-0.34;100.00;101998.72;7390377;19;20497;-62
2023/02/07 04:38:19;;;;;;;2.97;1.95;;;;;;;-0.10;100.00;101987.63;7390249;19;20006;-62
2023/02/07 04:40:46;;;;;;;2.03;1.33;;;;;;;-0.47;100.00;101989.75;7391851;19;20011;-62
2023/02/07 04:43:12;;;;;;;13.02;2.90;;;;;;;-0.59;100.00;102002.69;7389767;19;20384;-62
2023/02/07 04:45:38;;;;;;;16.48;3.17;;;;;;;-0.57;100.00;102000.41;7389549;19;20033;-62
2023/02/07 04:48:04;;;;;;;4.40;1.58;;;;;;;-0.75;100.00;101999.91;7388876;19;20027;-62
2023/02/07 04:50:30;;;;;;;1.60;1.52;;;;;;;-0.87;100.00;102003.44;7391698;19;20015;-62
2023/02/07 04:52:57;;;;;;;1.48;1.40;;;;;;;-0.82;100.00;102005.16;7393617;19;20049;-62
2023/02/07 04:55:23;;;;;;;13.60;3.10;;;;;;;-0.97;100.00;102003.13;7386984;19;20019;-62
2023/02/07 04:57:49;;;;;;;23.02;4.70;;;;;;;-1.04;100.00;102000.97;7387356;19;20017;-62
2023/02/07 05:00:16;;;;;;;7.60;3.03;;;;;;;-1.07;100.00;101998.97;7390151;19;20018;-62
2023/02/07 05:02:43;;;;;;;1.58;1.48;;;;;;;0.52;100.00;101992.34;7391203;19;20700;-62
2023/02/07 05:05:09;;;;;;;3.47;1.98;;;;;;;0.83;100.00;101988.75;7391709;19;20017;-63
2023/02/07 05:07:35;;;;;;;1.77;1.67;;;;;;;1.34;100.00;101996.53;7387048;19;20007;-62
2023/02/07 05:10:01;;;;;;;1.15;1.15;;;;;;;0.61;100.00;101995.69;7390149;19;20007;-62
2023/02/07 05:12:27;;;;;;;1.33;1.25;;;;;;;0.47;100.00;102000.84;7389276;19;20082;-62
2023/02/07 05:14:54;;;;;;;2.45;2.30;;;;;;;0.62;100.00;101994.53;7387991;19;20021;-62
2023/02/07 05:17:20;;;;;;;1.67;1.58;;;;;;;0.40;100.00;101989.69;7388524;19;20407;-62
2023/02/07 05:19:46;;;;;;;8.35;2.72;;;;;;;1.99;100.00;101988.41;7389252;19;20027;-62
2023/02/07 05:22:12;;;;;;;5.93;2.42;;;;;;;2.43;100.00;101991.47;7389815;19;20014;-62
2023/02/07 05:24:39;;;;;;;0.90;0.90;;;;;;;2.52;100.00;101981.81;7391592;19;20015;-62
2023/02/07 05:27:05;;;;;;;1.77;1.65;;;;;;;0.41;100.00;101994.81;7386586;19;20011;-62
2023/02/07 05:29:31;;;;;;;4.32;2.60;;;;;;;-0.55;100.00;102004.41;7387895;19;20442;-62
2023/02/07 05:34:52;;;;;;;9.20;3.15;;;;;;;-0.47;100.00;102000.72;7387717;19;20018;-63
2023/02/07 05:37:18;;;;;;;4.25;2.45;;;;;;;-0.25;100.00;101997.41;7395048;19;20627;-62
2023/02/07 05:39:44;;;;;;;8.90;2.05;;;;;;;-0.63;100.00;102013.56;7395567;19;20006;-62
2023/02/07 05:42:11;;;;;;;3.65;1.70;;;;;;;-0.57;100.00;102003.16;7394734;19;20018;-63
2023/02/07 05:44:37;;;;;;;19.98;2.72;;;;;;;-0.52;100.00;102006.41;7392505;19;20014;-62
2023/02/07 05:47:03;;;;;;;4.90;3.17;;;;;;;-0.84;100.00;102010.97;7393476;19;20026;-62
2023/02/07 05:49:29;;;;;;;4.68;3.70;;;;;;;-1.04;100.00;102008.41;7393095;19;20006;-62
2023/02/07 05:51:55;;;;;;;2.05;1.92;;;;;;;-0.32;100.00;102021.06;7392528;19;20035;-62
2023/02/07 05:54:21;;;;;;;6.75;3.20;;;;;;;0.20;100.00;102007.19;7398216;19;20031;-62
2023/02/07 05:56:48;;;;;;;5.78;2.75;;;;;;;-0.47;100.00;102017.13;7395012;19;20095;-62
2023/02/07 05:59:14;;;;;;;2.05;1.75;;;;;;;0.72;100.00;102015.91;7397556;19;20010;-62
2023/02/07 06:01:40;;;;;;;3.33;2.60;;;;;;;1.42;100.00;102009.25;7394013;19;20019;-62
2023/02/07 06:04:07;;;;;;;3.30;2.55;;;;;;;1.38;100.00;102010.34;7391055;19;20530;-62
2023/02/07 06:06:33;;;;;;;2.20;1.27;;;;;;;-0.28;100.00;102013.75;7395752;19;20038;-62
2023/02/07 06:08:59;;;;;;;5.78;2.33;;;;;;;0.84;100.00;102010.34;7393239;19;20014;-62
2023/02/07 06:11:25;;;;;;;3.70;1.40;;;;;;;1.15;100.00;102004.75;7393857;19;20040;-62
2023/02/07 06:13:51;;;;;;;3.92;3.28;;;;;;;1.17;100.00;102007.94;7394140;19;20010;-62
2023/02/07 06:16:17;;;;;;;0.55;0.55;;;;;;;1.46;100.00;102010.13;7394168;19;20562;-62
2023/02/07 06:18:44;;;;;;;1.67;1.58;;;;;;;-0.35;100.00;102013.56;7396304;19;20503;-62
2023/02/07 06:21:10;;;;;;;9.35;1.50;;;;;;;-0.17;100.00;102023.84;7396156;19;20014;-62
2023/02/07 06:23:36;;;;;;;5.30;3.13;;;;;;;-0.58;100.00;102015.22;7394682;19;20018;-62
2023/02/07 06:26:02;;;;;;;0.95;0.95;;;;;;;-0.59;100.00;102013.66;7393648;19;20467;-62
2023/02/07 06:28:28;;;;;;;9.35;2.08;;;;;;;-1.13;100.00;102022.22;7393838;19;20026;-63
2023/02/07 06:30:54;;;;;;;3.58;2.00;;;;;;;-0.62;100.00;102008.84;7395938;19;20018;-63
2023/02/07 06:33:21;;;;;;;6.65;2.65;;;;;;;-0.28;100.00;102013.75;7393156;19;20062;-62
2023/02/07 06:35:47;;;;;;;2.83;2.35;;;;;;;-0.73;100.00;102032.38;7391722;19;20010;-62
2023/02/07 06:38:14;;;;;;;4.13;2.65;;;;;;;-0.65;100.00;102020.50;7392370;19;20061;-62
2023/02/07 06:40:42;;;;;;;2.28;1.90;;;;;;;-0.79;100.00;102026.34;7397120;19;20427;-63
2023/02/07 06:43:10;;;;;;;5.25;2.50;;;;;;;-0.90;100.00;102041.63;7392811;19;20325;-62
2023/02/07 06:45:36;;;;;;;3.55;2.83;;;;;;;-0.71;100.00;102044.56;7392689;19;20014;-62
2023/02/07 06:48:03;;;;;;;1.42;1.35;;;;;;;-0.73;100.00;102033.16;7390211;19;20010;-62
2023/02/07 06:50:29;;;;;;;2.22;2.00;;;;;;;-1.01;100.00;102035.03;7395451;19;20550;-62
2023/02/07 06:53:00;;;;;;;3.83;2.80;;;;;;;-0.62;100.00;102047.16;7396785;19;20011;-62
2023/02/07 06:55:28;;;;;;;1.50;1.50;;;;;;;-0.47;100.00;102035.47;7392287;19;20021;-63
2023/02/07 06:57:55;;;;;;;10.52;3.45;;;;;;;-0.21;100.00;102031.16;7392114;19;20018;-62
2023/02/07 07:00:22;;;;;;;4.05;2.63;;;;;;;-0.30;100.00;102033.25;7394050;19;20353;-62
2023/02/07 07:02:48;;;;;;;28.98;8.07;;;;;;;-0.18;100.00;102041.44;7393190;19;20014;-62
2023/02/07 07:05:15;;;;;;;4.55;3.33;;;;;;;-0.37;100.00;102044.00;7389526;19;20018;-63
2023/02/07 07:07:41;;;;;;;8.60;3.40;;;;;;;0.16;100.00;102039.16;7393017;19;20005;-63
2023/02/07 07:10:07;;;;;;;27.45;5.70;;;;;;;-0.58;100.00;102050.78;7396274;19;20011;-62
2023/02/07 07:12:33;;;;;;;13.70;6.60;;;;;;;-0.55;100.00;102042.69;7391657;19;20019;-62
2023/02/07 07:15:00;;;;;;;23.80;4.57;;;;;;;-1.16;100.00;102049.41;7395006;19;20019;-63
2023/02/07 07:17:26;;;;;;;3.85;2.10;;;;;;;-1.04;100.00;102052.16;7392611;19;20015;-63
2023/02/07 07:19:52;;;;;;;11.23;3.40;;;;;;;-0.93;100.00;102047.78;7396171;19;20066;-63
2023/02/07 07:22:19;;;;;;;2.42;2.15;;;;;;;-0.79;100.00;102045.50;7392284;19;20010;-63
2023/02/07 07:24:46;;;;;;;2.88;2.47;;;;;;;-1.22;100.00;102057.06;7391657;19;20069;-63
2023/02/07 07:27:12;;;;;;;4.22;2.88;;;;;;;-1.40;100.00;102052.16;7391010;19;20011;-63
2023/02/07 07:29:38;;;;;;;9.65;2.38;;;;;;;-1.51;100.00;102051.81;7391832;19;20484;-63
2023/02/07 07:32:05;;;;;;;5.18;4.70;;;;;;;-1.29;100.00;102061.50;7390885;19;20015;-63
2023/02/07 07:34:32;;;;;;;1.55;1.45;;;;;;;-0.94;100.00;102065.34;7389270;19;20015;-63
2023/02/07 07:36:58;;;;;;;1.70;1.60;;;;;;;-0.69;100.00;102053.22;7391668;19;20019;-63
2023/02/07 07:39:25;;;;;;;12.20;2.95;;;;;;;-0.83;100.00;102047.34;7392183;19;20010;-63
2023/02/07 07:41:51;;;;;;;2.72;2.53;;;;;;;-0.74;100.00;102039.81;7391293;19;20357;-63
2023/02/07 07:44:35;;;;;;;5.93;2.38;;;;;;;-1.05;100.00;102045.09;7389661;19;20010;-63
2023/02/07 07:47:01;;;;;;;8.50;3.55;;;;;;;-0.78;100.00;102055.31;7391138;19;20029;-63
2023/02/07 07:49:27;;;;;;;3.90;3.20;;;;;;;-0.80;100.00;102052.91;7391238;19;20006;-63
2023/02/07 07:51:53;;;;;;;7.38;3.90;;;;;;;-0.82;100.00;102043.44;7390002;19;20006;-63
2023/02/07 07:54:19;;;;;;;2.83;2.60;;;;;;;-0.73;100.00;102046.84;7389881;19;20035;-63
2023/02/07 07:56:46;;;;;;;3.65;3.13;;;;;;;-0.43;100.00;102050.06;7390648;19;20003;-63
2023/02/07 07:59:12;;;;;;;5.35;2.03;;;;;;;0.02;100.00;102056.03;7392741;19;20011;-63
2023/02/07 08:01:38;;;;;;;2.55;2.20;;;;;;;-0.08;100.00;102049.13;7391164;19;20015;-62
2023/02/07 08:04:04;;;;;;;6.50;3.28;;;;;;;-0.38;100.00;102041.59;7393497;19;20845;-63
2023/02/07 08:06:31;;;;;;;4.32;3.28;;;;;;;0.16;100.00;102052.88;7386806;19;20014;-63
2023/02/07 08:08:57;;;;;;;2.75;1.73;;;;;;;-0.28;100.00;102063.81;7388606;19;20101;-63
2023/02/07 08:11:23;;;;;;;2.13;1.42;;;;;;;-0.61;100.00;102054.25;7390773;19;20482;-63
2023/02/07 08:13:50;;;;;;;2.20;2.10;;;;;;;-0.95;100.00;102069.22;7391315;19;20312;-63
2023/02/07 08:16:16;;;;;;;5.93;3.33;;;;;;;-1.11;100.00;102068.34;7389542;19;20015;-63
2023/02/07 08:18:42;;;;;;;1.60;1.50;;;;;;;-1.17;100.00;102065.00;7390880;19;20066;-63
2023/02/07 08:21:09;;;;;;;2.88;2.50;;;;;;;-1.02;100.00;102071.75;7394927;19;20014;-63
2023/02/07 08:23:36;;;;;;;3.35;2.67;;;;;;;-0.76;100.00;102094.06;7389264;19;20455;-62
2023/02/07 08:26:03;;;;;;;5.55;1.65;;;;;;;-0.37;100.00;102093.25;7391183;19;20591;-63
2023/02/07 08:28:30;;;;;;;4.70;2.30;;;;;;;-0.60;100.00;102083.97;7392899;19;20404;-63
2023/02/07 08:31:01;;;;;;;5.30;4.45;;;;;;;-0.26;100.00;102083.41;7394890;19;20011;-63
2023/02/07 08:33:27;;;;;;;1.50;1.50;;;;;;;-0.10;100.00;102075.25;7391739;19;20044;-62
2023/02/07 08:35:53;;;;;;;4.43;2.17;;;;;;;-0.10;100.00;102080.72;7390855;19;20447;-63
2023/02/07 08:38:20;;;;;;;6.50;2.17;;;;;;;-0.06;100.00;102076.94;7390196;19;20400;-63
2023/02/07 08:40:46;;;;;;;19.52;2.17;;;;;;;-0.03;100.00;102079.00;7393474;19;20038;-62
2023/02/07 08:43:13;;;;;;;2.63;2.42;;;;;;;0.13;100.00;102094.69;7387905;19;20019;-63
2023/02/07 08:45:42;;;;;;;16.38;4.07;;;;;;;0.38;100.00;102085.97;7388840;19;20015;-63
2023/02/07 08:48:08;;;;;;;4.32;3.90;;;;;;;1.46;100.00;102080.69;7389485;19;20519;-62
2023/02/07 08:50:34;;;;;;;7.32;3.92;;;;;;;0.52;100.00;102091.03;7392670;19;20011;-63
2023/02/07 08:53:00;;;;;;;3.88;2.00;;;;;;;-0.03;100.00;102087.22;7391149;19;20022;-63
2023/02/07 08:55:26;;;;;;;13.93;2.88;;;;;;;-0.11;100.00;102084.63;7391080;19;20558;-63
2023/02/07 08:57:53;;;;;;;10.23;2.92;;;;;;;-0.14;100.00;102088.84;7391670;19;20010;-62
2023/02/07 09:00:19;;;;;;;3.25;2.95;;;;;;;-0.18;100.00;102098.91;7391017;19;20010;-62
2023/02/07 09:02:45;;;;;;;4.07;2.50;;;;;;;-0.34;100.00;102100.78;7390857;19;20632;-63
2023/02/07 09:05:11;;;;;;;7.68;3.40;;;;;;;0.03;100.00;102089.69;7390599;19;20010;-63
2023/02/07 09:07:37;;;;;;;7.05;4.22;;;;;;;-0.09;100.00;102098.78;7389370;19;20014;-62
2023/02/07 09:10:06;;;;;;;3.95;2.70;;;;;;;-0.13;100.00;102104.13;7391470;19;20007;-63
2023/02/07 09:12:33;;;;;;;8.70;1.63;;;;;;;-0.07;100.00;102102.75;7398234;19;20459;-62
2023/02/07 09:14:59;;;;;;;4.80;2.65;;;;;;;0.04;100.00;102099.50;7397230;19;20035;-62
2023/02/07 09:17:25;;;;;;;5.38;3.90;;;;;;;1.06;100.00;102102.91;7398952;19;20013;-64
2023/02/07 09:19:52;;;;;;;3.92;2.28;;;;;;;0.22;100.00;102117.25;7398095;19;20011;-63
2023/02/07 09:22:18;;;;;;;31.27;4.22;;;;;;;0.41;100.00;102111.88;7399359;19;20078;-63
2023/02/07 09:24:46;;;;;;;10.65;1.80;;;;;;;0.35;100.00;102110.50;7399535;19;20021;-63
2023/02/07 09:27:12;;;;;;;7.25;2.17;;;;;;;0.52;100.00;102096.50;7396830;19;20034;-63
2023/02/07 09:29:39;;;;;;;2.42;2.22;;;;;;;0.50;100.00;102105.06;7395067;19;20011;-62
2023/02/07 09:32:05;;;;;;;7.43;4.40;;;;;;;1.65;100.00;102096.38;7397581;19;20014;-62
2023/02/07 09:34:33;;;;;;;3.83;2.78;;;;;;;2.00;100.00;102110.88;7398473;19;20010;-62
2023/02/07 09:36:59;;;;;;;7.72;4.13;;;;;;;5.10;100.00;102104.13;7399567;19;20017;-62
2023/02/07 09:39:26;;;;;;;3.38;2.70;;;;;;;4.61;100.00;102099.75;7399420;19;20014;-62
2023/02/07 09:42:29;;;;;;;22.42;3.63;;;;;;;3.70;100.00;102099.53;7396471;19;20010;-62
2023/02/07 09:45:11;;;;;;;3.72;2.42;;;;;;;3.96;100.00;102101.44;7399141;19;20015;-62
2023/02/07 09:47:42;;;;;;;12.68;1.70;;;;;;;5.52;100.00;102096.13;7400977;19;20006;-63
2023/02/07 09:50:18;;;;;;;6.60;2.07;;;;;;;4.40;100.00;102088.53;7397447;19;20003;-63
2023/02/07 09:52:49;;;;;;;10.25;2.05;;;;;;;5.08;100.00;102078.84;7395631;19;20019;-63
2023/02/07 09:55:28;;;;;;;1.75;1.65;;;;;;;4.77;100.00;102079.41;7393763;19;20014;-62
2023/02/07 09:57:59;;;;;;;4.93;2.65;;;;;;;3.74;100.00;102083.06;7395725;19;20031;-63
2023/02/07 10:00:28;;;;;;;0.68;0.50;;;;;;;4.15;100.00;102093.00;7398441;19;20011;-63
2023/02/07 10:03:05;;;;;;;2.28;2.08;;;;;;;4.11;100.00;102086.66;7396503;19;20017;-63
2023/02/07 10:05:42;;;;;;;18.65;3.55;;;;;;;4.65;100.00;102087.97;7395159;19;20022;-62
2023/02/07 10:08:14;;;;;;;8.10;2.70;;;;;;;5.40;100.00;102088.13;7395257;19;20022;-63
2023/02/07 10:10:49;;;;;;;3.03;2.65;;;;;;;11.15;100.00;102080.09;7399143;19;20388;-63
2023/02/07 10:13:37;;;;;;;17.88;1.70;;;;;;;9.57;88.94;102092.25;7393377;19;20010;-63
2023/02/07 10:16:16;;;;;;;7.20;3.38;;;;;;;6.01;100.00;102098.34;7392783;19;20471;-63
2023/02/07 10:18:59;;;;;;;2.03;1.33;;;;;;;8.30;100.00;102075.91;7392366;19;20736;-63
2023/02/07 10:21:30;;;;;;;4.47;2.75;;;;;;;4.05;100.00;102090.13;7391218;19;20035;-63
2023/02/07 10:24:01;;;;;;;11.70;3.20;;;;;;;3.38;100.00;102097.53;7393070;19;20018;-63
2023/02/07 10:26:31;;;;;;;28.73;5.30;;;;;;;2.97;100.00;102100.06;7392740;19;20527;-63
2023/02/07 10:29:19;;;;;;;4.93;2.45;;;;;;;2.58;100.00;102100.59;7393749;19;20360;-63
2023/02/07 10:31:50;;;;;;;14.27;5.30;;;;;;;2.41;100.00;102103.78;7396793;19;20014;-63
2023/02/07 10:34:36;;;;;;;9.98;2.35;;;;;;;2.51;100.00;102093.00;7391797;19;20018;-63
2023/02/07 10:37:22;;;;;;;16.95;4.00;;;;;;;2.57;100.00;102101.72;7392631;19;20019;-63
2023/02/07 10:40:24;;;;;;;8.07;2.97;;;;;;;2.55;100.00;102099.34;7393963;19;20028;-63
2023/02/07 10:43:04;;;;;;;10.25;4.30;;;;;;;2.57;100.00;102094.28;7390522;19;20023;-63
2023/02/07 10:45:30;;;;;;;3.15;1.85;;;;;;;2.69;100.00;102096.84;7391807;19;20070;-63
2023/02/07 10:47:57;;;;;;;7.13;2.55;;;;;;;2.77;100.00;102095.00;7392592;19;20015;-63
2023/02/07 10:50:25;;;;;;;10.63;2.28;;;;;;;2.82;100.00;102095.50;7394952;19;20048;-64
2023/02/07 10:52:54;;;;;;;12.63;2.95;;;;;;;2.95;100.00;102096.88;7396149;19;20010;-63
2023/02/07 10:55:42;;;;;;;6.55;1.98;;;;;;;3.08;100.00;102100.22;7391236;19;20015;-62
2023/02/07 10:58:16;;;;;;;2.45;2.00;;;;;;;3.18;100.00;102104.31;7391636;19;20328;-62
2023/02/07 11:00:49;;;;;;;6.22;2.50;;;;;;;3.25;100.00;102104.44;7394710;19;20007;-62
2023/02/07 11:03:21;;;;;;;6.90;3.25;;;;;;;3.46;100.00;102093.69;7394858;19;20123;-62
2023/02/07 11:05:59;;;;;;;6.45;1.50;;;;;;;3.63;100.00;102095.91;7392154;19;20010;-62
2023/02/07 11:08:31;;;;;;;1.70;0.93;;;;;;;3.61;100.00;102099.03;7389162;19;20344;-62
2023/02/07 11:11:16;;;;;;;0.60;0.60;;;;;;;3.78;100.00;102103.19;7394699;19;20025;-62
2023/02/07 11:13:49;;;;;;;3.08;2.15;;;;;;;3.77;100.00;102094.13;7391141;19;20017;-62
2023/02/07 11:16:18;;;;;;;11.30;2.33;;;;;;;3.97;100.00;102085.69;7393269;19;20399;-62
2023/02/07 11:18:58;;;;;;;8.35;1.20;;;;;;;4.00;100.00;102085.75;7391576;19;20006;-62
2023/02/07 11:21:41;;;;;;;9.88;1.10;;;;;;;4.04;100.00;102091.28;7391108;19;20021;-61
2023/02/07 11:24:30;;;;;;;4.60;2.10;;;;;;;4.17;100.00;102085.13;7391918;19;20332;-62
2023/02/07 11:27:02;;;;;;;11.27;3.03;;;;;;;4.32;100.00;102075.03;7390806;19;20017;-61
2023/02/07 11:29:32;;;;;;;7.65;2.65;;;;;;;5.02;100.00;102074.88;7391023;19;20006;-62
2023/02/07 11:32:00;;;;;;;10.20;2.75;;;;;;;4.46;100.00;102075.97;7390563;19;20035;-61
2023/02/07 11:34:29;;;;;;;3.45;2.00;;;;;;;4.41;100.00;102073.56;7389533;19;20025;-61
2023/02/07 11:37:18;;;;;;;7.38;4.25;;;;;;;4.72;100.00;102060.44;7394704;19;20011;-61
2023/02/07 11:39:46;;;;;;;4.68;2.85;;;;;;;4.77;100.00;102068.34;7391661;19;20017;-62
2023/02/07 11:42:18;;;;;;;3.08;1.88;;;;;;;4.79;100.00;102054.97;7391512;19;20007;-61